sensor_id;sensor_type;location;lat;lon;timestamp;pressure;altitude;pressure_sealevel;temperature;humidity
55187;BME280;55457;52.002;5.464;2023-07-28T00:01:57;100270.03;;;23.22;64.95
55187;BME280;55457;52.002;5.464;2023-07-28T00:04:22;100263.78;;;23.21;64.84
55187;BME280;55457;52.002;5.464;2023-07-28T00:06:48;100267.31;;;23.22;65.13
55187;BME280;55457;52.002;5.464;2023-07-28T00:09:13;100268.41;;;23.21;64.89
55187;BME280;55457;52.002;5.464;2023-07-28T00:11:38;100261.88;;;23.22;64.83
55187;BME280;55457;52.002;5.464;2023-07-28T00:14:04;100259.44;;;23.20;65.03
55187;BME280;55457;52.002;5.464;2023-07-28T00:16:29;100254.03;;;23.20;64.85
55187;BME280;55457;52.002;5.464;2023-07-28T00:18:55;100255.94;;;23.20;65.04
55187;BME280;55457;52.002;5.464;2023-07-28T00:21:20;100253.22;;;23.20;64.69
55187;BME280;55457;52.002;5.464;2023-07-28T00:23:45;100257.53;;;23.21;64.87
55187;BME280;55457;52.002;5.464;2023-07-28T00:26:11;100254.03;;;23.20;64.99
55187;BME280;55457;52.002;5.464;2023-07-28T00:28:36;100248.59;;;23.20;64.98
55187;BME280;55457;52.002;5.464;2023-07-28T00:31:01;100248.88;;;23.18;64.65
55187;BME280;55457;52.002;5.464;2023-07-28T00:33:27;100247.78;;;23.20;65.03
55187;BME280;55457;52.002;5.464;2023-07-28T00:35:52;100248.59;;;23.20;64.85
55187;BME280;55457;52.002;5.464;2023-07-28T00:38:17;100246.69;;;23.21;64.68
55187;BME280;55457;52.002;5.464;2023-07-28T00:40:43;100249.69;;;23.19;65.00
55187;BME280;55457;52.002;5.464;2023-07-28T00:43:08;100249.69;;;23.19;64.89
55187;BME280;55457;52.002;5.464;2023-07-28T00:45:34;100243.44;;;23.18;64.98
55187;BME280;55457;52.002;5.464;2023-07-28T00:48:00;100246.97;;;23.19;65.00
55187;BME280;55457;52.002;5.464;2023-07-28T00:50:26;100243.16;;;23.20;64.76
55187;BME280;55457;52.002;5.464;2023-07-28T00:52:52;100247.78;;;23.20;64.95
55187;BME280;55457;52.002;5.464;2023-07-28T00:55:18;100246.16;;;23.18;64.86
55187;BME280;55457;52.002;5.464;2023-07-28T00:57:43;100249.69;;;23.19;64.97
55187;BME280;55457;52.002;5.464;2023-07-28T01:00:09;100242.34;;;23.20;64.90
55187;BME280;55457;52.002;5.464;2023-07-28T01:02:36;100246.97;;;23.19;64.98
55187;BME280;55457;52.002;5.464;2023-07-28T01:05:02;100246.97;;;23.19;64.93
55187;BME280;55457;52.002;5.464;2023-07-28T01:07:50;100252.41;;;23.19;64.82
55187;BME280;55457;52.002;5.464;2023-07-28T01:10:35;100260.56;;;23.19;65.16
55187;BME280;55457;52.002;5.464;2023-07-28T01:13:01;100262.47;;;23.18;65.13
55187;BME280;55457;52.002;5.464;2023-07-28T01:15:26;100262.47;;;23.18;65.04
55187;BME280;55457;52.002;5.464;2023-07-28T01:17:52;100257.03;;;23.18;64.97
55187;BME280;55457;52.002;5.464;2023-07-28T01:20:17;100262.47;;;23.18;65.08
55187;BME280;55457;52.002;5.464;2023-07-28T01:28:01;100266.25;;;23.17;64.80
55187;BME280;55457;52.002;5.464;2023-07-28T01:30:28;100263.53;;;23.17;64.84
55187;BME280;55457;52.002;5.464;2023-07-28T01:32:55;100265.19;;;23.18;65.12
55187;BME280;55457;52.002;5.464;2023-07-28T01:35:21;100261.66;;;23.18;64.94
55187;BME280;55457;52.002;5.464;2023-07-28T01:37:46;100262.47;;;23.18;64.99
55187;BME280;55457;52.002;5.464;2023-07-28T01:40:18;100263.53;;;23.17;64.97
55187;BME280;55457;52.002;5.464;2023-07-28T01:42:44;100263.53;;;23.17;65.03
55187;BME280;55457;52.002;5.464;2023-07-28T01:45:09;100256.22;;;23.18;65.00
55187;BME280;55457;52.002;5.464;2023-07-28T01:47:35;100261.66;;;23.18;64.83
55187;BME280;55457;52.002;5.464;2023-07-28T01:50:00;100265.19;;;23.18;64.99
55187;BME280;55457;52.002;5.464;2023-07-28T01:52:26;100257.03;;;23.18;64.88
55187;BME280;55457;52.002;5.464;2023-07-28T01:54:51;100254.31;;;23.18;65.06
55187;BME280;55457;52.002;5.464;2023-07-28T01:57:17;100258.94;;;23.18;64.87
55187;BME280;55457;52.002;5.464;2023-07-28T01:59:42;100247.50;;;23.16;65.04
55187;BME280;55457;52.002;5.464;2023-07-28T02:02:07;100255.38;;;23.17;64.87
55187;BME280;55457;52.002;5.464;2023-07-28T02:04:33;100255.38;;;23.17;64.83
55187;BME280;55457;52.002;5.464;2023-07-28T02:06:58;100255.38;;;23.17;64.77
55187;BME280;55457;52.002;5.464;2023-07-28T02:09:23;100254.56;;;23.17;64.85
55187;BME280;55457;52.002;5.464;2023-07-28T02:11:49;100258.38;;;23.16;64.86
55187;BME280;55457;52.002;5.464;2023-07-28T02:14:14;100260.00;;;23.17;65.04
55187;BME280;55457;52.002;5.464;2023-07-28T02:16:39;100265.44;;;23.17;64.78
55187;BME280;55457;52.002;5.464;2023-07-28T02:19:05;100263.53;;;23.17;64.75
55187;BME280;55457;52.002;5.464;2023-07-28T02:21:30;100254.56;;;23.17;65.02
55187;BME280;55457;52.002;5.464;2023-07-28T02:23:55;100266.25;;;23.17;64.97
55187;BME280;55457;52.002;5.464;2023-07-28T02:26:21;100262.72;;;23.17;65.00
55187;BME280;55457;52.002;5.464;2023-07-28T02:28:46;100260.00;;;23.17;64.93
55187;BME280;55457;52.002;5.464;2023-07-28T02:31:11;100263.00;;;23.15;65.21
55187;BME280;55457;52.002;5.464;2023-07-28T02:33:37;100256.47;;;23.16;64.98
55187;BME280;55457;52.002;5.464;2023-07-28T02:36:06;100261.91;;;23.16;65.13
55187;BME280;55457;52.002;5.464;2023-07-28T02:38:32;100251.84;;;23.17;64.78
55187;BME280;55457;52.002;5.464;2023-07-28T02:40:57;100250.22;;;23.16;65.07
55187;BME280;55457;52.002;5.464;2023-07-28T02:43:22;100249.94;;;23.17;64.98
55187;BME280;55457;52.002;5.464;2023-07-28T02:45:55;100255.38;;;23.17;65.10
55187;BME280;55457;52.002;5.464;2023-07-28T02:48:21;100256.47;;;23.16;64.88
55187;BME280;55457;52.002;5.464;2023-07-28T02:50:47;100267.34;;;23.16;65.06
55187;BME280;55457;52.002;5.464;2023-07-28T02:53:13;100264.63;;;23.16;65.22
55187;BME280;55457;52.002;5.464;2023-07-28T02:55:45;100264.63;;;23.16;65.15
55187;BME280;55457;52.002;5.464;2023-07-28T02:58:11;100270.88;;;23.17;64.95
55187;BME280;55457;52.002;5.464;2023-07-28T03:00:41;100272.78;;;23.16;64.83
55187;BME280;55457;52.002;5.464;2023-07-28T03:03:08;100273.59;;;23.17;64.84
55187;BME280;55457;52.002;5.464;2023-07-28T03:05:36;100272.78;;;23.16;65.23
55187;BME280;55457;52.002;5.464;2023-07-28T03:08:01;100268.44;;;23.15;64.98
55187;BME280;55457;52.002;5.464;2023-07-28T03:10:27;100279.31;;;23.15;64.87
55187;BME280;55457;52.002;5.464;2023-07-28T03:12:52;100275.50;;;23.16;64.94
55187;BME280;55457;52.002;5.464;2023-07-28T03:15:17;100283.13;;;23.14;65.02
55187;BME280;55457;52.002;5.464;2023-07-28T03:17:43;100285.84;;;23.14;65.09
55187;BME280;55457;52.002;5.464;2023-07-28T03:20:08;100285.84;;;23.14;65.10
55187;BME280;55457;52.002;5.464;2023-07-28T03:22:34;100289.38;;;23.15;65.02
55187;BME280;55457;52.002;5.464;2023-07-28T03:24:59;100290.19;;;23.15;64.91
55187;BME280;55457;52.002;5.464;2023-07-28T03:27:25;100290.19;;;23.15;65.02
55187;BME280;55457;52.002;5.464;2023-07-28T03:29:51;100289.38;;;23.15;65.10
55187;BME280;55457;52.002;5.464;2023-07-28T03:32:16;100295.63;;;23.15;65.20
55187;BME280;55457;52.002;5.464;2023-07-28T03:34:41;100295.63;;;23.15;65.06
55187;BME280;55457;52.002;5.464;2023-07-28T03:37:08;100297.25;;;23.16;64.99
55187;BME280;55457;52.002;5.464;2023-07-28T03:39:34;100295.63;;;23.15;65.00
55187;BME280;55457;52.002;5.464;2023-07-28T03:41:59;100301.06;;;23.15;65.13
55187;BME280;55457;52.002;5.464;2023-07-28T03:44:25;100304.59;;;23.16;64.95
55187;BME280;55457;52.002;5.464;2023-07-28T03:46:50;100300.25;;;23.15;65.12
55187;BME280;55457;52.002;5.464;2023-07-28T03:49:15;100302.69;;;23.16;65.06
55187;BME280;55457;52.002;5.464;2023-07-28T03:51:41;100302.16;;;23.14;65.08
55187;BME280;55457;52.002;5.464;2023-07-28T03:54:06;100300.25;;;23.15;64.94
55187;BME280;55457;52.002;5.464;2023-07-28T03:56:31;100307.31;;;23.16;64.89
55187;BME280;55457;52.002;5.464;2023-07-28T03:58:57;100295.63;;;23.15;65.00
55187;BME280;55457;52.002;5.464;2023-07-28T04:01:22;100301.88;;;23.16;65.02
55187;BME280;55457;52.002;5.464;2023-07-28T04:03:48;100306.47;;;23.15;65.04
55187;BME280;55457;52.002;5.464;2023-07-28T04:06:13;100301.06;;;23.15;64.95
55187;BME280;55457;52.002;5.464;2023-07-28T04:08:39;100306.47;;;23.15;64.81
55187;BME280;55457;52.002;5.464;2023-07-28T04:11:05;100306.47;;;23.15;65.04
55187;BME280;55457;52.002;5.464;2023-07-28T04:13:30;100301.06;;;23.15;64.94
55187;BME280;55457;52.002;5.464;2023-07-28T04:15:56;100300.25;;;23.15;64.92
55187;BME280;55457;52.002;5.464;2023-07-28T04:18:21;100304.88;;;23.14;64.68
55187;BME280;55457;52.002;5.464;2023-07-28T04:20:48;100302.97;;;23.15;65.10
55187;BME280;55457;52.002;5.464;2023-07-28T04:23:13;100304.88;;;23.14;64.88
55187;BME280;55457;52.002;5.464;2023-07-28T04:25:39;100308.41;;;23.15;64.94
55187;BME280;55457;52.002;5.464;2023-07-28T04:28:04;100305.69;;;23.15;64.85
55187;BME280;55457;52.002;5.464;2023-07-28T04:30:29;100309.50;;;23.14;65.03
55187;BME280;55457;52.002;5.464;2023-07-28T04:32:55;100313.03;;;23.14;64.82
55187;BME280;55457;52.002;5.464;2023-07-28T04:35:20;100319.25;;;23.15;65.10
55187;BME280;55457;52.002;5.464;2023-07-28T04:37:45;100321.97;;;23.15;64.91
55187;BME280;55457;52.002;5.464;2023-07-28T04:40:11;100322.78;;;23.15;64.84
55187;BME280;55457;52.002;5.464;2023-07-28T04:42:37;100321.16;;;23.14;65.04
55187;BME280;55457;52.002;5.464;2023-07-28T04:45:03;100326.59;;;23.14;65.15
55187;BME280;55457;52.002;5.464;2023-07-28T04:47:28;100326.59;;;23.14;65.00
55187;BME280;55457;52.002;5.464;2023-07-28T04:49:54;100332.03;;;23.14;64.96
55187;BME280;55457;52.002;5.464;2023-07-28T04:52:19;100332.03;;;23.14;65.04
55187;BME280;55457;52.002;5.464;2023-07-28T04:54:45;100327.69;;;23.13;64.81
55187;BME280;55457;52.002;5.464;2023-07-28T04:57:11;100331.22;;;23.14;64.87
55187;BME280;55457;52.002;5.464;2023-07-28T04:59:37;100337.47;;;23.14;64.86
55187;BME280;55457;52.002;5.464;2023-07-28T05:02:03;100336.66;;;23.14;65.02
55187;BME280;55457;52.002;5.464;2023-07-28T05:04:28;100334.75;;;23.14;64.97
55187;BME280;55457;52.002;5.464;2023-07-28T05:06:54;100336.66;;;23.14;64.87
55187;BME280;55457;52.002;5.464;2023-07-28T05:09:19;100336.66;;;23.14;64.60
55187;BME280;55457;52.002;5.464;2023-07-28T05:11:44;100341.28;;;23.13;64.76
55187;BME280;55457;52.002;5.464;2023-07-28T05:14:10;100346.72;;;23.13;64.83
55187;BME280;55457;52.002;5.464;2023-07-28T05:16:35;100341.28;;;23.13;64.96
55187;BME280;55457;52.002;5.464;2023-07-28T05:19:00;100346.72;;;23.13;65.01
55187;BME280;55457;52.002;5.464;2023-07-28T05:21:26;100341.28;;;23.13;65.17
55187;BME280;55457;52.002;5.464;2023-07-28T05:23:51;100338.56;;;23.13;64.88
55187;BME280;55457;52.002;5.464;2023-07-28T05:26:16;100344.00;;;23.13;65.04
55187;BME280;55457;52.002;5.464;2023-07-28T05:28:42;100335.03;;;23.13;64.86
55187;BME280;55457;52.002;5.464;2023-07-28T05:31:07;100330.41;;;23.13;65.13
55187;BME280;55457;52.002;5.464;2023-07-28T05:33:33;100332.03;;;23.14;65.35
55187;BME280;55457;52.002;5.464;2023-07-28T05:36:08;100336.66;;;23.14;65.41
55187;BME280;55457;52.002;5.464;2023-07-28T05:38:33;100335.03;;;23.13;65.16
55187;BME280;55457;52.002;5.464;2023-07-28T05:41:00;100346.72;;;23.13;65.20
55187;BME280;55457;52.002;5.464;2023-07-28T05:43:27;100344.53;;;23.15;65.23
55187;BME280;55457;52.002;5.464;2023-07-28T05:45:52;100342.91;;;23.14;65.17
55187;BME280;55457;52.002;5.464;2023-07-28T05:48:18;100351.06;;;23.14;64.93
55187;BME280;55457;52.002;5.464;2023-07-28T05:50:43;100359.75;;;23.16;64.88
55187;BME280;55457;52.002;5.464;2023-07-28T05:53:08;100360.84;;;23.15;64.78
55187;BME280;55457;52.002;5.464;2023-07-28T05:55:34;100365.19;;;23.16;64.78
55187;BME280;55457;52.002;5.464;2023-07-28T05:57:59;100367.09;;;23.16;64.87
55187;BME280;55457;52.002;5.464;2023-07-28T06:00:25;100363.28;;;23.17;64.86
55187;BME280;55457;52.002;5.464;2023-07-28T06:02:50;100368.72;;;23.17;65.04
55187;BME280;55457;52.002;5.464;2023-07-28T06:05:16;100365.75;;;23.18;65.00
55187;BME280;55457;52.002;5.464;2023-07-28T06:07:41;100369.53;;;23.17;64.87
55187;BME280;55457;52.002;5.464;2023-07-28T06:10:07;100364.09;;;23.17;64.84
55187;BME280;55457;52.002;5.464;2023-07-28T06:12:33;100364.09;;;23.17;65.05
55187;BME280;55457;52.002;5.464;2023-07-28T06:14:58;100375.81;;;23.18;64.93
55187;BME280;55457;52.002;5.464;2023-07-28T06:17:23;100369.28;;;23.19;64.99
55187;BME280;55457;52.002;5.464;2023-07-28T06:19:52;100372.81;;;23.20;64.86
55187;BME280;55457;52.002;5.464;2023-07-28T06:22:17;100376.63;;;23.18;65.16
55187;BME280;55457;52.002;5.464;2023-07-28T06:24:43;100382.06;;;23.18;65.12
55187;BME280;55457;52.002;5.464;2023-07-28T06:27:08;100382.88;;;23.19;64.82
55187;BME280;55457;52.002;5.464;2023-07-28T06:29:34;100380.97;;;23.20;64.83
55187;BME280;55457;52.002;5.464;2023-07-28T06:32:00;100380.97;;;23.20;65.02
55187;BME280;55457;52.002;5.464;2023-07-28T06:34:26;100389.13;;;23.20;65.29
55187;BME280;55457;52.002;5.464;2023-07-28T06:36:51;100392.13;;;23.18;65.43
55187;BME280;55457;52.002;5.464;2023-07-28T06:39:17;100394.56;;;23.20;65.85
55187;BME280;55457;52.002;5.464;2023-07-28T06:41:42;100401.63;;;23.21;65.29
55187;BME280;55457;52.002;5.464;2023-07-28T06:44:07;100399.19;;;23.19;64.99
55187;BME280;55457;52.002;5.464;2023-07-28T06:46:33;100402.72;;;23.20;65.19
55187;BME280;55457;52.002;5.464;2023-07-28T06:48:59;100402.72;;;23.20;65.11
55187;BME280;55457;52.002;5.464;2023-07-28T06:51:24;100400.81;;;23.20;65.19
55187;BME280;55457;52.002;5.464;2023-07-28T06:53:50;100407.06;;;23.21;65.38
55187;BME280;55457;52.002;5.464;2023-07-28T06:56:16;100421.75;;;23.20;65.32
55187;BME280;55457;52.002;5.464;2023-07-28T06:58:41;100417.94;;;23.21;65.57
55187;BME280;55457;52.002;5.464;2023-07-28T07:01:06;100410.88;;;23.20;65.38
55187;BME280;55457;52.002;5.464;2023-07-28T07:03:36;100421.75;;;23.20;65.43
55187;BME280;55457;52.002;5.464;2023-07-28T07:06:01;100425.28;;;23.20;65.45
55187;BME280;55457;52.002;5.464;2023-07-28T07:08:26;100433.72;;;23.18;65.23
55187;BME280;55457;52.002;5.464;2023-07-28T07:10:52;100425.56;;;23.18;65.38
55187;BME280;55457;52.002;5.464;2023-07-28T07:13:17;100429.91;;;23.20;65.43
55187;BME280;55457;52.002;5.464;2023-07-28T07:15:43;100421.75;;;23.20;65.44
55187;BME280;55457;52.002;5.464;2023-07-28T07:18:08;100428.81;;;23.21;65.18
55187;BME280;55457;52.002;5.464;2023-07-28T07:20:35;100434.25;;;23.21;65.50
55187;BME280;55457;52.002;5.464;2023-07-28T07:23:01;100436.16;;;23.20;65.53
55187;BME280;55457;52.002;5.464;2023-07-28T07:25:26;100440.50;;;23.21;65.58
55187;BME280;55457;52.002;5.464;2023-07-28T07:27:52;100438.06;;;23.20;65.78
55187;BME280;55457;52.002;5.464;2023-07-28T07:30:17;100438.88;;;23.20;65.91
55187;BME280;55457;52.002;5.464;2023-07-28T07:32:44;100444.03;;;23.22;65.90
55187;BME280;55457;52.002;5.464;2023-07-28T07:35:09;100445.94;;;23.21;65.67
55187;BME280;55457;52.002;5.464;2023-07-28T07:37:35;100444.03;;;23.22;65.93
55187;BME280;55457;52.002;5.464;2023-07-28T07:40:00;100451.09;;;23.23;65.90
55187;BME280;55457;52.002;5.464;2023-07-28T07:42:27;100448.38;;;23.23;65.71
55187;BME280;55457;52.002;5.464;2023-07-28T07:44:54;100450.28;;;23.22;65.78
55187;BME280;55457;52.002;5.464;2023-07-28T07:47:19;100463.63;;;23.24;65.61
55187;BME280;55457;52.002;5.464;2023-07-28T07:49:44;100463.63;;;23.24;66.04
55187;BME280;55457;52.002;5.464;2023-07-28T07:52:10;100460.91;;;23.24;65.93
55187;BME280;55457;52.002;5.464;2023-07-28T07:54:35;100465.53;;;23.23;65.84
55187;BME280;55457;52.002;5.464;2023-07-28T07:57:02;100467.16;;;23.24;65.56
55187;BME280;55457;52.002;5.464;2023-07-28T07:59:27;100473.41;;;23.25;65.68
55187;BME280;55457;52.002;5.464;2023-07-28T08:01:55;100472.59;;;23.24;65.55
55187;BME280;55457;52.002;5.464;2023-07-28T08:04:21;100469.59;;;23.26;65.94
55187;BME280;55457;52.002;5.464;2023-07-28T08:06:47;100473.13;;;23.26;65.65
55187;BME280;55457;52.002;5.464;2023-07-28T08:09:12;100480.47;;;23.26;65.89
55187;BME280;55457;52.002;5.464;2023-07-28T08:11:39;100484.00;;;23.26;65.82
55187;BME280;55457;52.002;5.464;2023-07-28T08:14:04;100483.72;;;23.28;65.81
55187;BME280;55457;52.002;5.464;2023-07-28T08:16:30;100480.19;;;23.27;65.71
55187;BME280;55457;52.002;5.464;2023-07-28T08:18:55;100485.38;;;23.29;65.79
55187;BME280;55457;52.002;5.464;2023-07-28T08:21:20;100486.19;;;23.29;65.56
55187;BME280;55457;52.002;5.464;2023-07-28T08:23:47;100483.47;;;23.29;65.90
55187;BME280;55457;52.002;5.464;2023-07-28T08:26:13;100489.72;;;23.30;65.66
55187;BME280;55457;52.002;5.464;2023-07-28T08:28:39;100484.28;;;23.30;65.65
55187;BME280;55457;52.002;5.464;2023-07-28T08:31:04;100494.06;;;23.31;65.97
55187;BME280;55457;52.002;5.464;2023-07-28T08:33:29;100493.25;;;23.30;65.86
55187;BME280;55457;52.002;5.464;2023-07-28T08:35:55;100492.16;;;23.31;65.65
55187;BME280;55457;52.002;5.464;2023-07-28T08:38:20;100494.88;;;23.31;65.64
55187;BME280;55457;52.002;5.464;2023-07-28T08:40:46;100496.50;;;23.32;65.64
55187;BME280;55457;52.002;5.464;2023-07-28T08:43:11;100497.88;;;23.35;65.65
55187;BME280;55457;52.002;5.464;2023-07-28T08:45:37;100498.13;;;23.33;65.82
55187;BME280;55457;52.002;5.464;2023-07-28T08:48:03;100506.03;;;23.35;65.60
55187;BME280;55457;52.002;5.464;2023-07-28T08:50:28;100505.22;;;23.34;65.49
55187;BME280;55457;52.002;5.464;2023-07-28T08:52:56;100495.16;;;23.35;65.71
55187;BME280;55457;52.002;5.464;2023-07-28T08:55:21;100502.22;;;23.36;65.62
55187;BME280;55457;52.002;5.464;2023-07-28T08:57:47;100498.41;;;23.37;65.39
55187;BME280;55457;52.002;5.464;2023-07-28T09:00:13;100491.63;;;23.39;65.49
55187;BME280;55457;52.002;5.464;2023-07-28T09:02:40;100501.69;;;23.39;65.43
55187;BME280;55457;52.002;5.464;2023-07-28T09:05:06;100500.59;;;23.40;65.51
55187;BME280;55457;52.002;5.464;2023-07-28T09:07:37;100488.63;;;23.41;65.56
55187;BME280;55457;52.002;5.464;2023-07-28T09:10:03;100489.97;;;23.43;65.27
55187;BME280;55457;52.002;5.464;2023-07-28T09:12:32;100488.09;;;23.44;65.31
55187;BME280;55457;52.002;5.464;2023-07-28T09:14:58;100496.25;;;23.49;65.14
55187;BME280;55457;52.002;5.464;2023-07-28T09:17:23;100487.81;;;23.51;65.30
55187;BME280;55457;52.002;5.464;2023-07-28T09:19:56;100504.38;;;23.54;65.25
55187;BME280;55457;52.002;5.464;2023-07-28T09:22:22;100497.88;;;23.55;65.29
55187;BME280;55457;52.002;5.464;2023-07-28T09:24:49;100502.22;;;23.56;65.15
55187;BME280;55457;52.002;5.464;2023-07-28T09:27:25;100498.41;;;23.57;64.97
55187;BME280;55457;52.002;5.464;2023-07-28T09:29:54;100505.22;;;23.60;65.07
55187;BME280;55457;52.002;5.464;2023-07-28T09:32:28;100503.03;;;23.62;65.01
55187;BME280;55457;52.002;5.464;2023-07-28T09:35:07;100502.22;;;23.61;65.07
55187;BME280;55457;52.002;5.464;2023-07-28T09:37:37;100506.56;;;23.62;65.38
55187;BME280;55457;52.002;5.464;2023-07-28T09:40:03;100507.13;;;23.64;65.34
55187;BME280;55457;52.002;5.464;2023-07-28T09:42:30;100513.13;;;23.66;65.31
55187;BME280;55457;52.002;5.464;2023-07-28T09:44:58;100513.13;;;23.66;65.47
55187;BME280;55457;52.002;5.464;2023-07-28T09:47:24;100521.81;;;23.68;65.59
55187;BME280;55457;52.002;5.464;2023-07-28T09:49:50;100515.84;;;23.72;65.50
55187;BME280;55457;52.002;5.464;2023-07-28T09:52:18;100515.28;;;23.75;65.30
55187;BME280;55457;52.002;5.464;2023-07-28T09:54:46;100511.50;;;23.76;65.02
55187;BME280;55457;52.002;5.464;2023-07-28T09:57:14;100512.31;;;23.76;65.11
55187;BME280;55457;52.002;5.464;2023-07-28T09:59:42;100518.56;;;23.77;65.04
55187;BME280;55457;52.002;5.464;2023-07-28T10:02:08;100501.66;;;23.80;65.16
55187;BME280;55457;52.002;5.464;2023-07-28T10:04:35;100507.13;;;23.80;65.08
55187;BME280;55457;52.002;5.464;2023-07-28T10:07:01;100512.56;;;23.80;64.93
55187;BME280;55457;52.002;5.464;2023-07-28T10:09:29;100515.84;;;23.82;64.83
55187;BME280;55457;52.002;5.464;2023-07-28T10:11:56;100505.19;;;23.85;64.84
55187;BME280;55457;52.002;5.464;2023-07-28T10:14:37;100512.81;;;23.83;65.04
55187;BME280;55457;52.002;5.464;2023-07-28T10:17:04;100504.94;;;23.82;65.04
55187;BME280;55457;52.002;5.464;2023-07-28T10:19:34;100513.38;;;23.80;65.06
55187;BME280;55457;52.002;5.464;2023-07-28T10:22:01;100517.75;;;23.81;65.01
55187;BME280;55457;52.002;5.464;2023-07-28T10:30:00;100514.75;;;23.83;65.12
55187;BME280;55457;52.002;5.464;2023-07-28T10:32:27;100509.56;;;23.81;64.84
55187;BME280;55457;52.002;5.464;2023-07-28T10:35:01;100519.66;;;23.81;65.01
55187;BME280;55457;52.002;5.464;2023-07-28T10:37:27;100517.75;;;23.81;65.13
55187;BME280;55457;52.002;5.464;2023-07-28T10:42:55;100518.81;;;23.80;64.87
55187;BME280;55457;52.002;5.464;2023-07-28T10:45:25;100520.47;;;23.81;65.05
55187;BME280;55457;52.002;5.464;2023-07-28T10:47:55;100520.19;;;23.83;64.85
55187;BME280;55457;52.002;5.464;2023-07-28T10:50:24;100522.91;;;23.83;64.77
55187;BME280;55457;52.002;5.464;2023-07-28T10:52:49;100526.97;;;23.85;64.84
55187;BME280;55457;52.002;5.464;2023-07-28T10:55:16;100523.19;;;23.86;65.01
55187;BME280;55457;52.002;5.464;2023-07-28T10:57:43;100531.88;;;23.88;64.79
55187;BME280;55457;52.002;5.464;2023-07-28T11:00:10;100525.06;;;23.91;64.76
55187;BME280;55457;52.002;5.464;2023-07-28T11:02:47;100530.47;;;23.96;64.85
55187;BME280;55457;52.002;5.464;2023-07-28T11:07:44;100532.13;;;24.02;64.83
55187;BME280;55457;52.002;5.464;2023-07-28T11:10:10;100534.84;;;24.07;64.39
55187;BME280;55457;52.002;5.464;2023-07-28T11:12:39;100528.81;;;24.10;64.40
55187;BME280;55457;52.002;5.464;2023-07-28T11:15:08;100540.28;;;24.12;64.30
55187;BME280;55457;52.002;5.464;2023-07-28T11:17:54;100538.59;;;24.16;64.35
55187;BME280;55457;52.002;5.464;2023-07-28T11:20:20;100549.78;;;24.20;64.07
55187;BME280;55457;52.002;5.464;2023-07-28T11:22:52;100542.13;;;24.22;64.17
55187;BME280;55457;52.002;5.464;2023-07-28T11:25:18;100537.53;;;24.23;64.38
55187;BME280;55457;52.002;5.464;2023-07-28T11:27:44;100540.78;;;24.25;64.24
55187;BME280;55457;52.002;5.464;2023-07-28T11:30:12;100546.22;;;24.25;64.14
55187;BME280;55457;52.002;5.464;2023-07-28T11:32:37;100552.50;;;24.25;63.98
55187;BME280;55457;52.002;5.464;2023-07-28T11:35:05;100550.28;;;24.27;64.11
55187;BME280;55457;52.002;5.464;2023-07-28T11:37:33;100544.84;;;24.27;64.00
55187;BME280;55457;52.002;5.464;2023-07-28T11:40:02;100541.59;;;24.30;64.01
55187;BME280;55457;52.002;5.464;2023-07-28T11:42:33;100547.31;;;24.29;64.12
55187;BME280;55457;52.002;5.464;2023-07-28T11:44:59;100546.50;;;24.28;63.96
55187;BME280;55457;52.002;5.464;2023-07-28T11:47:25;100541.88;;;24.29;63.99
55187;BME280;55457;52.002;5.464;2023-07-28T11:49:50;100541.88;;;24.29;63.96
55187;BME280;55457;52.002;5.464;2023-07-28T11:52:16;100543.75;;;24.33;63.81
55187;BME280;55457;52.002;5.464;2023-07-28T11:54:43;100545.38;;;24.34;63.89
55187;BME280;55457;52.002;5.464;2023-07-28T11:57:09;100542.41;;;24.36;63.88
55187;BME280;55457;52.002;5.464;2023-07-28T11:59:35;100549.22;;;24.38;63.82
55187;BME280;55457;52.002;5.464;2023-07-28T12:02:04;100550.03;;;24.39;63.71
55187;BME280;55457;52.002;5.464;2023-07-28T12:04:32;100550.03;;;24.44;63.66
55187;BME280;55457;52.002;5.464;2023-07-28T12:09:26;100555.72;;;24.47;63.53
55187;BME280;55457;52.002;5.464;2023-07-28T12:11:52;100556.25;;;24.55;63.36
55187;BME280;55457;52.002;5.464;2023-07-28T12:14:31;100552.41;;;24.61;63.31
55187;BME280;55457;52.002;5.464;2023-07-28T12:16:56;100559.47;;;24.67;63.27
55187;BME280;55457;52.002;5.464;2023-07-28T12:19:21;100557.03;;;24.65;63.25
55187;BME280;55457;52.002;5.464;2023-07-28T12:21:47;100557.03;;;24.65;63.09
55187;BME280;55457;52.002;5.464;2023-07-28T12:24:12;100564.63;;;24.63;63.09
55187;BME280;55457;52.002;5.464;2023-07-28T12:26:37;100556.47;;;24.63;63.09
55187;BME280;55457;52.002;5.464;2023-07-28T12:29:03;100553.22;;;24.61;63.05
55187;BME280;55457;52.002;5.464;2023-07-28T12:31:28;100554.31;;;24.60;63.34
55187;BME280;55457;52.002;5.464;2023-07-28T12:33:53;100554.56;;;24.64;63.03
55187;BME280;55457;52.002;5.464;2023-07-28T12:36:19;100543.91;;;24.67;62.79
55187;BME280;55457;52.002;5.464;2023-07-28T12:38:44;100556.44;;;24.68;62.86
55187;BME280;55457;52.002;5.464;2023-07-28T12:41:09;100551.00;;;24.68;62.97
55187;BME280;55457;52.002;5.464;2023-07-28T12:43:35;100548.81;;;24.70;62.89
55187;BME280;55457;52.002;5.464;2023-07-28T12:46:00;100550.72;;;24.75;62.81
55187;BME280;55457;52.002;5.464;2023-07-28T12:48:25;100541.69;;;24.80;62.49
55187;BME280;55457;52.002;5.464;2023-07-28T12:50:51;100549.59;;;24.81;62.53
55187;BME280;55457;52.002;5.464;2023-07-28T12:53:16;100556.63;;;24.87;62.34
55187;BME280;55457;52.002;5.464;2023-07-28T12:55:42;100548.47;;;24.87;62.36
55187;BME280;55457;52.002;5.464;2023-07-28T12:58:07;100550.41;;;24.82;62.28
55187;BME280;55457;52.002;5.464;2023-07-28T13:00:32;100555.31;;;24.80;62.36
55187;BME280;55457;52.002;5.464;2023-07-28T13:02:58;100557.75;;;24.86;62.48
55187;BME280;55457;52.002;5.464;2023-07-28T13:05:24;100550.13;;;24.83;62.24